Time,TemperatureF,DewpointF,PressureIn,WindDirection,WindDirectionDegrees,WindSpeedMPH,WindSpeedGustMPH,Humidity,HourlyPrecipIn,Conditions,Clouds,dailyrainin,SoftwareType,DateUTC
2013-03-17 00:23:00,64.0,47.0,-100.00,WSW,242,10.0,-999.0,55,0.00,,,-99.99,,2013-03-17 04:23:00,
2013-03-17 00:33:00,64.0,47.0,-100.00,WSW,242,10.0,-999.0,55,0.00,,,-99.99,,2013-03-17 04:33:00,
2013-03-17 00:43:00,64.0,47.0,-100.00,WSW,242,10.0,-999.0,55,0.00,,,-99.99,,2013-03-17 04:43:00,
2013-03-17 01:22:00,62.0,48.0,-100.00,SW,236,7.0,-999.0,59,0.00,,,-99.99,,2013-03-17 05:22:00,
2013-03-17 01:32:00,62.0,48.0,-100.00,SW,236,7.0,-999.0,59,0.00,,,-99.99,,2013-03-17 05:32:00,
2013-03-17 01:42:00,62.0,48.0,-100.00,SW,236,7.0,-999.0,59,0.00,,,-99.99,,2013-03-17 05:42:00,
2013-03-17 02:22:00,60.0,48.0,-100.00,WSW,247,6.0,-999.0,63,0.00,,,-99.99,,2013-03-17 06:22:00,
2013-03-17 02:32:00,60.0,48.0,-100.00,WSW,247,6.0,-999.0,63,0.00,,,-99.99,,2013-03-17 06:32:00,
2013-03-17 02:42:00,60.0,48.0,-100.00,WSW,247,6.0,-999.0,63,0.00,,,-99.99,,2013-03-17 06:42:00,
2013-03-17 03:22:00,58.0,50.0,-100.00,WSW,245,6.0,-999.0,74,0.00,,,-99.99,,2013-03-17 07:22:00,
2013-03-17 03:32:00,58.0,50.0,-100.00,WSW,245,6.0,-999.0,74,0.00,,,-99.99,,2013-03-17 07:32:00,
2013-03-17 03:42:00,58.0,50.0,-100.00,WSW,245,6.0,-999.0,74,0.00,,,-99.99,,2013-03-17 07:42:00,
2013-03-17 04:13:00,58.0,49.0,-100.00,WSW,253,7.0,-999.0,72,0.00,,,-99.99,,2013-03-17 08:13:00,
2013-03-17 04:22:00,58.0,49.0,-100.00,WSW,253,7.0,-999.0,72,0.00,,,-99.99,,2013-03-17 08:22:00,
2013-03-17 04:33:00,58.0,49.0,-100.00,WSW,253,7.0,-999.0,72,0.00,,,-99.99,,2013-03-17 08:33:00,
2013-03-17 04:42:00,58.0,49.0,-100.00,WSW,253,7.0,-999.0,72,0.00,,,-99.99,,2013-03-17 08:42:00,
2013-03-17 05:22:00,60.0,47.0,-100.00,West,267,7.0,-999.0,62,0.00,,,-99.99,,2013-03-17 09:22:00,
2013-03-17 05:32:00,60.0,47.0,-100.00,West,267,7.0,-999.0,62,0.00,,,-99.99,,2013-03-17 09:32:00,
2013-03-17 05:43:00,60.0,47.0,-100.00,West,267,7.0,-999.0,62,0.00,,,-99.99,,2013-03-17 09:43:00,
2013-03-17 06:23:00,59.0,47.0,-100.00,WSW,250,8.0,-999.0,65,0.00,,,-99.99,,2013-03-17 10:23:00,
2013-03-17 06:33:00,59.0,47.0,-100.00,WSW,250,8.0,-999.0,65,0.00,,,-99.99,,2013-03-17 10:33:00,
2013-03-17 06:42:00,59.0,47.0,-100.00,WSW,250,8.0,-999.0,65,0.00,,,-99.99,,2013-03-17 10:42:00,
2013-03-17 07:22:00,58.0,48.0,-100.00,WSW,248,7.0,-999.0,67,0.00,,,-99.99,,2013-03-17 11:22:00,
2013-03-17 07:32:00,58.0,48.0,-100.00,WSW,248,7.0,-999.0,67,0.00,,,-99.99,,2013-03-17 11:32:00,
2013-03-17 07:42:00,58.0,48.0,-100.00,WSW,248,7.0,-999.0,67,0.00,,,-99.99,,2013-03-17 11:42:00,
2013-03-17 08:22:00,58.0,49.0,-100.00,WSW,245,8.0,-999.0,72,0.00,,,-99.99,,2013-03-17 12:22:00,
2013-03-17 08:33:00,58.0,49.0,-100.00,WSW,245,8.0,-999.0,72,0.00,,,-99.99,,2013-03-17 12:33:00,
2013-03-17 08:43:00,58.0,49.0,-100.00,WSW,245,8.0,-999.0,72,0.00,,,-99.99,,2013-03-17 12:43:00,
2013-03-17 09:22:00,61.0,51.0,-100.00,WSW,256,11.0,-999.0,70,0.00,,,-99.99,,2013-03-17 13:22:00,
2013-03-17 09:32:00,61.0,51.0,-100.00,WSW,256,11.0,-999.0,70,0.00,,,-99.99,,2013-03-17 13:32:00,
2013-03-17 09:43:00,61.0,51.0,-100.00,WSW,256,11.0,-999.0,70,0.00,,,-99.99,,2013-03-17 13:43:00,
2013-03-17 10:22:00,64.0,52.0,-100.00,West,267,11.0,-999.0,65,0.00,,,-99.99,,2013-03-17 14:22:00,
2013-03-17 10:33:00,64.0,52.0,-100.00,West,267,11.0,-999.0,65,0.00,,,-99.99,,2013-03-17 14:33:00,
2013-03-17 10:42:00,64.0,52.0,-100.00,West,267,11.0,-999.0,65,0.00,,,-99.99,,2013-03-17 14:42:00,
2013-03-17 11:23:00,67.0,52.0,-100.00,West,267,12.0,-999.0,58,0.00,,,-99.99,,2013-03-17 15:23:00,
2013-03-17 11:33:00,67.0,52.0,-100.00,West,267,12.0,-999.0,58,0.00,,,-99.99,,2013-03-17 15:33:00,
2013-03-17 11:43:00,67.0,52.0,-100.00,West,267,12.0,-999.0,58,0.00,,,-99.99,,2013-03-17 15:43:00,
2013-03-17 12:23:00,70.0,52.0,-100.00,WNW,286,10.0,-999.0,51,0.00,,,-99.99,,2013-03-17 16:23:00,
2013-03-17 12:33:00,70.0,52.0,-100.00,WNW,286,10.0,-999.0,51,0.00,,,-99.99,,2013-03-17 16:33:00,
2013-03-17 12:43:00,70.0,52.0,-100.00,WNW,286,10.0,-999.0,51,0.00,,,-99.99,,2013-03-17 16:43:00,
2013-03-17 13:22:00,73.0,50.0,-100.00,West,261,10.0,-999.0,45,0.00,,,-99.99,,2013-03-17 17:22:00,
2013-03-17 13:33:00,73.0,50.0,-100.00,West,261,10.0,-999.0,45,0.00,,,-99.99,,2013-03-17 17:33:00,
2013-03-17 13:42:00,73.0,50.0,-100.00,West,261,10.0,-999.0,45,0.00,,,-99.99,,2013-03-17 17:42:00,
2013-03-17 14:22:00,75.0,51.0,-100.00,WSW,250,7.0,-999.0,44,0.00,,,-99.99,,2013-03-17 18:22:00,
2013-03-17 14:32:00,75.0,51.0,-100.00,WSW,250,7.0,-999.0,44,0.00,,,-99.99,,2013-03-17 18:32:00,
2013-03-17 14:42:00,75.0,51.0,-100.00,WSW,250,7.0,-999.0,44,0.00,,,-99.99,,2013-03-17 18:42:00,
2013-03-17 15:23:00,71.0,58.0,-100.00,SSW,194,15.0,-999.0,64,0.00,,,-99.99,,2013-03-17 19:23:00,
2013-03-17 15:33:00,71.0,58.0,-100.00,SSW,194,15.0,-999.0,64,0.00,,,-99.99,,2013-03-17 19:33:00,
2013-03-17 15:42:00,71.0,58.0,-100.00,SSW,194,15.0,-999.0,64,0.00,,,-99.99,,2013-03-17 19:42:00,
2013-03-17 16:23:00,69.0,58.0,-100.00,SSW,201,15.0,-999.0,67,0.00,,,-99.99,,2013-03-17 20:23:00,
2013-03-17 16:33:00,69.0,58.0,-100.00,SSW,201,15.0,-999.0,67,0.00,,,-99.99,,2013-03-17 20:33:00,
2013-03-17 16:42:00,69.0,58.0,-100.00,SSW,201,15.0,-999.0,67,0.00,,,-99.99,,2013-03-17 20:42:00,
2013-03-17 17:23:00,69.0,57.0,-100.00,SW,217,16.0,-999.0,66,0.00,,,-99.99,,2013-03-17 21:23:00,
2013-03-17 17:33:00,69.0,57.0,-100.00,SW,217,16.0,-999.0,66,0.00,,,-99.99,,2013-03-17 21:33:00,
2013-03-17 17:43:00,69.0,57.0,-100.00,SW,217,16.0,-999.0,66,0.00,,,-99.99,,2013-03-17 21:43:00,
2013-03-17 18:23:00,68.0,57.0,-100.00,SW,222,14.0,-999.0,66,0.00,,,-99.99,,2013-03-17 22:23:00,
2013-03-17 18:33:00,68.0,57.0,-100.00,SW,222,14.0,-999.0,66,0.00,,,-99.99,,2013-03-17 22:33:00,
2013-03-17 18:42:00,68.0,57.0,-100.00,SW,222,14.0,-999.0,66,0.00,,,-99.99,,2013-03-17 22:42:00,
2013-03-17 19:22:00,66.0,51.0,-100.00,SW,226,16.0,-999.0,58,0.00,,,-99.99,,2013-03-17 23:22:00,
2013-03-17 19:33:00,66.0,51.0,-100.00,SW,226,16.0,-999.0,58,0.00,,,-99.99,,2013-03-17 23:33:00,
2013-03-17 19:43:00,66.0,51.0,-100.00,SW,226,16.0,-999.0,58,0.00,,,-99.99,,2013-03-17 23:43:00,
2013-03-17 20:22:00,64.0,50.0,-100.00,SW,228,16.0,-999.0,60,0.00,,,-99.99,,2013-03-18 00:22:00,
2013-03-17 20:33:00,64.0,50.0,-100.00,SW,228,16.0,-999.0,60,0.00,,,-99.99,,2013-03-18 00:33:00,
2013-03-17 20:42:00,64.0,50.0,-100.00,SW,228,16.0,-999.0,60,0.00,,,-99.99,,2013-03-18 00:42:00,
2013-03-17 21:22:00,63.0,50.0,-100.00,SW,228,16.0,-999.0,62,0.00,,,-99.99,,2013-03-18 01:22:00,
2013-03-17 21:33:00,63.0,50.0,-100.00,SW,228,16.0,-999.0,62,0.00,,,-99.99,,2013-03-18 01:33:00,
2013-03-17 21:42:00,63.0,50.0,-100.00,SW,228,16.0,-999.0,62,0.00,,,-99.99,,2013-03-18 01:42:00,
2013-03-17 22:22:00,63.0,51.0,-100.00,SW,228,9.0,-999.0,64,0.00,,,-99.99,,2013-03-18 02:22:00,
2013-03-17 22:32:00,63.0,51.0,-100.00,SW,228,9.0,-999.0,64,0.00,,,-99.99,,2013-03-18 02:32:00,
2013-03-17 22:42:00,63.0,51.0,-100.00,SW,228,9.0,-999.0,64,0.00,,,-99.99,,2013-03-18 02:42:00,
2013-03-17 23:22:00,64.0,51.0,-100.00,SW,235,8.0,-999.0,62,0.00,,,-99.99,,2013-03-18 03:22:00,
2013-03-17 23:33:00,64.0,51.0,-100.00,SW,235,8.0,-999.0,62,0.00,,,-99.99,,2013-03-18 03:33:00,
2013-03-17 23:42:00,64.0,51.0,-100.00,SW,235,8.0,-999.0,62,0.00,,,-99.99,,2013-03-18 03:42:00,